Impacts TAF Board
For situational awareness. Not to be used for flight planning purposes.
IDs:

KBOS - Boston/Logan Intl, MA, US

Issued at 1122 UTC 30 Mar 2020
Updated at 1222 UTC 30 Mar 2020
Potential Impact None Slight Moderate High
Time1154Z 30/13Z 30/14Z 30/15Z 30/16Z 30/17Z 30/18Z 30/19Z 30/20Z 30/21Z 30/22Z 30/23Z 31/00Z 31/01Z>>
Type OBS PRVL PRVL PRVL PRVL PRVL PRVL PRVL PRVL PRVL PRVL PRVL PRVL PRVL
VIS 3 3 3 3 3 3 4 4 4 4 4 4 4 4
CIG 8 7 7 7 7 7 8 8 8 8 8 8 8 8
Cover OVC OVC OVC OVC OVC OVC OVC OVC OVC OVC OVC OVC OVC OVC
FltCat IFR IFR IFR IFR IFR IFR IFR IFR IFR IFR IFR IFR IFR IFR
WX BR -DZ BR -DZ BR -DZ BR -DZ BR -DZ BR BR VCSH BR VCSH BR VCSH BR VCSH BR VCSH BR VCSH BR VCSH BR VCSH
WDir 40 30 30 30 30 30 40 40 40 40 40 40 40 40
WSpd 14 12 12 12 12 12 12 12 12 12 12 12 12 12
WGst -- -- -- -- -- -- 19 19 19 19 19 19 19 19
Raw TAF
KBOS 301122Z 3012/3118 03012KT 3SM -DZ BR OVC007
  FM301800 04012G19KT 4SM BR VCSH OVC008
  FM310200 03014G22KT 3SM -SHRA BR OVC007
  FM310600 02013G20KT 3SM -RASN BR OVC007
  FM311300 02012KT P6SM BKN015


Raw METAR
KBOS 301154Z 04014KT 3SM BR BKN008 OVC011 04/03 A2999 RMK AO2 SLP156 60000 70057 T00390028 10050 20039 50006
KBOS 301054Z 03012KT 5SM BR OVC008 04/03 A3000 RMK AO2 DZE36 SLP157 P0000 T00440033
KBOS 300954Z 02013KT 6SM -DZ BR OVC008 04/04 A2998 RMK AO2 SLP152 P0000 T00440039

METAR Board
Radar Display
Forecast Discussion
For situational awareness. Not to be used for flight planning purposes.